createdAt,value
2017-12-16T00:00:34.368Z,45.4
2017-12-16T00:01:35.988Z,45.5
2017-12-16T00:02:37.887Z,45.9
2017-12-16T00:03:39.785Z,45.9
2017-12-16T00:04:41.424Z,45.6
2017-12-16T00:05:43.050Z,45.9
2017-12-16T00:06:44.680Z,45.8
2017-12-16T00:07:46.000Z,45.7
2017-12-16T00:08:47.621Z,45.5
2017-12-16T00:09:49.246Z,46.1
2017-12-16T00:10:50.843Z,45.8
2017-12-16T00:11:52.741Z,45.8
2017-12-16T00:12:54.339Z,45.7
2017-12-16T00:13:55.686Z,45.8
2017-12-16T00:14:57.288Z,45.8
2017-12-16T00:15:58.911Z,45.7
2017-12-16T00:17:00.536Z,45.8
2017-12-16T00:18:02.132Z,45.9
2017-12-16T00:19:04.029Z,45.3
2017-12-16T00:20:05.927Z,45.7
2017-12-16T00:21:07.545Z,45.8
2017-12-16T00:22:09.142Z,45.6
2017-12-16T00:23:10.491Z,45.9
2017-12-16T00:24:11.536Z,45.8
2017-12-16T00:25:13.155Z,45.6
2017-12-16T00:26:14.755Z,45.7
2017-12-16T00:27:16.420Z,45.9
2017-12-16T00:28:18.360Z,46
2017-12-16T00:29:19.981Z,45.6
2017-12-16T00:30:21.301Z,45.7
2017-12-16T00:31:22.622Z,45.7
2017-12-16T00:32:24.517Z,45.5
2017-12-16T00:33:25.841Z,45.9
2017-12-16T00:34:27.188Z,45.8
2017-12-16T00:35:28.803Z,45.8
2017-12-16T00:36:30.700Z,45.9
2017-12-16T00:37:32.598Z,45.8
2017-12-16T00:38:34.225Z,45.8
2017-12-16T00:39:35.576Z,45.8
2017-12-16T00:40:37.196Z,45.7
2017-12-16T00:41:38.540Z,45.8
2017-12-16T00:42:40.165Z,45.9
2017-12-16T00:43:41.789Z,45.9
2017-12-16T00:44:43.415Z,46
2017-12-16T00:45:45.017Z,45.9
2017-12-16T00:46:46.914Z,45.8
2017-12-16T00:47:48.533Z,46.2
2017-12-16T00:48:50.135Z,46.2
2017-12-16T00:49:51.180Z,46.2
2017-12-16T00:50:52.802Z,45.9
2017-12-16T00:51:54.440Z,45.9
2017-12-16T00:52:56.057Z,46
2017-12-16T00:53:57.956Z,45.9
2017-12-16T00:54:59.855Z,45.8
2017-12-16T00:56:01.758Z,45.8
2017-12-16T00:57:03.384Z,45.8
2017-12-16T00:58:05.279Z,45.9
2017-12-16T00:59:06.640Z,45.8
2017-12-16T01:00:08.260Z,45.8
2017-12-16T01:03:10.368Z,45.9
2017-12-16T01:04:11.988Z,45.9
2017-12-16T01:05:13.887Z,45.9
2017-12-16T01:06:15.786Z,45.6
2017-12-16T01:07:17.681Z,45.6
2017-12-16T01:08:19.024Z,45.8
2017-12-16T01:09:20.636Z,45.8
2017-12-16T01:10:22.534Z,45.9
2017-12-16T01:11:24.134Z,46
2017-12-16T01:12:25.752Z,45.8
2017-12-16T01:13:27.075Z,45.9
2017-12-16T01:14:28.985Z,45.8
2017-12-16T01:15:30.609Z,45.9
2017-12-16T01:16:32.250Z,45.9
2017-12-16T01:17:33.871Z,45.8
2017-12-16T01:18:35.770Z,45.8
2017-12-16T01:19:37.670Z,46
2017-12-16T01:20:39.569Z,45.5
2017-12-16T01:21:41.187Z,45.8
2017-12-16T01:22:42.509Z,45.6
2017-12-16T01:23:43.834Z,45.9
2017-12-16T01:24:45.729Z,45.9
2017-12-16T01:25:47.629Z,45.9
2017-12-16T01:26:49.249Z,45.7
2017-12-16T01:27:51.150Z,45.8
2017-12-16T01:28:52.768Z,45.9
2017-12-16T01:29:54.404Z,45.9
2017-12-16T01:30:56.026Z,45.9
2017-12-16T01:31:57.651Z,45.8
2017-12-16T01:32:59.597Z,46
2017-12-16T01:34:01.220Z,45.9
2017-12-16T01:35:02.841Z,45.3
2017-12-16T01:36:04.742Z,45.8
2017-12-16T01:37:06.359Z,45.6
2017-12-16T01:38:07.989Z,45.7
2017-12-16T01:39:09.591Z,45.5
2017-12-16T01:40:11.214Z,45.6
2017-12-16T01:41:12.552Z,46
2017-12-16T01:42:14.172Z,45.5
2017-12-16T01:43:16.120Z,45.5
2017-12-16T01:44:18.021Z,45.2
2017-12-16T01:45:19.640Z,45.3
2017-12-16T01:46:21.270Z,45.6
2017-12-16T01:47:22.315Z,45.3
2017-12-16T01:48:23.658Z,45.4
2017-12-16T01:49:25.263Z,45.6
2017-12-16T01:50:26.885Z,45.4
2017-12-16T01:51:27.928Z,45.4
2017-12-16T01:52:29.555Z,45.5
2017-12-16T01:53:31.452Z,45.4
2017-12-16T01:54:33.352Z,45.5
2017-12-16T01:55:34.397Z,45.5
2017-12-16T01:56:35.719Z,45.3
2017-12-16T01:57:37.615Z,45.5
2017-12-16T01:58:39.232Z,45.6
2017-12-16T01:59:41.131Z,45.1
2017-12-16T02:00:42.451Z,45.4
2017-12-16T02:01:44.348Z,45.4
2017-12-16T02:02:45.970Z,45.4
2017-12-16T02:03:47.588Z,45.3
2017-12-16T02:04:49.210Z,45.1
2017-12-16T02:05:50.830Z,45.5
2017-12-16T02:06:52.732Z,45.5
2017-12-16T02:07:54.327Z,45.5
2017-12-16T02:08:56.224Z,45.4
2017-12-16T02:09:58.122Z,45.5
2017-12-16T02:11:00.024Z,45.2
2017-12-16T02:12:01.368Z,45.2
2017-12-16T02:13:03.295Z,45.4
2017-12-16T02:14:04.913Z,45.1
2017-12-16T02:15:06.537Z,45.3
2017-12-16T02:16:08.157Z,45.4
2017-12-16T02:17:09.754Z,45.5
2017-12-16T02:18:11.077Z,45
2017-12-16T02:19:12.975Z,44.9
2017-12-16T02:20:14.935Z,45
2017-12-16T02:21:16.830Z,45.2
2017-12-16T02:22:18.451Z,45.5
2017-12-16T02:23:20.054Z,45
2017-12-16T02:24:21.408Z,44.9
2017-12-16T02:25:22.993Z,45.1
2017-12-16T02:26:24.892Z,45
2017-12-16T02:27:26.491Z,45
2017-12-16T02:28:28.388Z,45
2017-12-16T02:29:30.006Z,45
2017-12-16T02:30:31.626Z,45.2
2017-12-16T02:31:33.245Z,45.2
2017-12-16T02:32:34.867Z,45.2
2017-12-16T02:33:36.485Z,45.2
2017-12-16T02:34:38.103Z,45.2
2017-12-16T02:35:40.001Z,45.1
2017-12-16T02:36:41.628Z,45.3
2017-12-16T02:37:43.519Z,45.3
2017-12-16T02:38:45.426Z,45.2
2017-12-16T02:39:47.330Z,45
2017-12-16T02:40:48.951Z,45.2
2017-12-16T02:41:50.268Z,45.2
2017-12-16T02:42:51.868Z,45.2
2017-12-16T02:43:53.809Z,45.1
2017-12-16T02:44:55.707Z,45.1
2017-12-16T02:45:57.548Z,45.1
2017-12-16T02:46:58.893Z,45.1
2017-12-16T02:48:00.791Z,45.1
2017-12-16T02:49:02.417Z,45.2
2017-12-16T02:50:04.031Z,45.1
2017-12-16T02:51:05.678Z,45.2
2017-12-16T02:52:07.296Z,45
2017-12-16T02:53:08.643Z,45.1
2017-12-16T02:54:10.270Z,44.9
2017-12-16T02:55:11.885Z,45.1
2017-12-16T02:56:13.786Z,45.1
2017-12-16T02:57:15.684Z,45
2017-12-16T02:58:17.026Z,45
2017-12-16T02:59:18.923Z,44.9
2017-12-16T03:00:20.592Z,44.9
2017-12-16T03:01:22.496Z,44.9
2017-12-16T03:02:24.397Z,45.1
2017-12-16T03:03:25.994Z,44.9
2017-12-16T03:04:27.335Z,44.9
2017-12-16T03:05:28.959Z,44.9
2017-12-16T03:06:30.306Z,44.9
2017-12-16T03:07:32.204Z,45.1
2017-12-16T03:08:33.823Z,44.9
2017-12-16T03:09:35.155Z,44.9
2017-12-16T03:10:37.043Z,45
2017-12-16T03:11:38.940Z,44.9
2017-12-16T03:12:40.590Z,45
2017-12-16T03:13:42.490Z,45.1
2017-12-16T03:14:44.442Z,45
2017-12-16T03:15:46.340Z,45.2
2017-12-16T03:16:47.661Z,45.2
2017-12-16T03:17:49.287Z,45.2
2017-12-16T03:18:50.632Z,45.1
2017-12-16T03:19:52.302Z,45.1
2017-12-16T03:20:53.900Z,45
2017-12-16T03:21:55.800Z,45
2017-12-16T03:22:57.147Z,45
2017-12-16T03:23:58.487Z,45
2017-12-16T03:25:00.386Z,45.1
2017-12-16T03:26:02.003Z,45.1
2017-12-16T03:27:03.624Z,45.2
2017-12-16T03:28:05.246Z,45.1
2017-12-16T03:29:06.864Z,45
2017-12-16T03:30:08.488Z,44.9
2017-12-16T03:31:10.383Z,44.7
2017-12-16T03:32:11.724Z,45.1
2017-12-16T03:33:13.346Z,44.7
2017-12-16T03:34:14.945Z,44.7
2017-12-16T03:35:16.850Z,44.8
2017-12-16T03:36:18.473Z,44.8
2017-12-16T03:37:20.076Z,44.8
2017-12-16T03:38:21.975Z,44.9
2017-12-16T03:39:23.593Z,44.9
2017-12-16T03:40:25.188Z,44.8
2017-12-16T03:41:26.808Z,45
2017-12-16T03:42:28.429Z,44.9
2017-12-16T03:43:29.754Z,45
2017-12-16T03:44:31.654Z,44.6
2017-12-16T03:45:33.273Z,45
2017-12-16T03:46:34.892Z,45
2017-12-16T03:47:36.514Z,44.6
2017-12-16T03:48:38.411Z,44.6
2017-12-16T03:49:40.309Z,44.9
2017-12-16T03:50:41.930Z,44.8
2017-12-16T03:51:43.532Z,44.9
2017-12-16T03:52:44.854Z,44.7
2017-12-16T03:53:46.198Z,44.8
2017-12-16T03:54:47.813Z,44.8
2017-12-16T03:55:49.433Z,44.8
2017-12-16T03:56:51.053Z,45
2017-12-16T03:57:52.711Z,44.8
2017-12-16T03:58:54.607Z,44.7
2017-12-16T03:59:56.514Z,44.8
2017-12-16T04:00:57.835Z,44.6
2017-12-16T04:01:59.458Z,44.8
2017-12-16T04:03:00.778Z,44.8
2017-12-16T04:04:02.396Z,44.6
2017-12-16T04:05:04.020Z,44.8
2017-12-16T04:06:05.919Z,45
2017-12-16T04:07:07.517Z,44.8
2017-12-16T04:08:09.117Z,44.6
2017-12-16T04:09:10.458Z,44.4
2017-12-16T04:10:12.358Z,44.4
2017-12-16T04:11:13.977Z,44.5
2017-12-16T04:12:15.597Z,44.5
2017-12-16T04:13:17.218Z,44.7
2017-12-16T04:14:19.116Z,44.5
2017-12-16T04:15:21.017Z,44.4
2017-12-16T04:16:22.919Z,44.4
2017-12-16T04:17:24.518Z,44.7
2017-12-16T04:18:26.415Z,44.4
2017-12-16T04:19:28.316Z,44.7
2017-12-16T04:20:29.655Z,44.5
2017-12-16T04:21:30.719Z,44.4
2017-12-16T04:22:32.041Z,44.6
2017-12-16T04:23:33.663Z,44.3
2017-12-16T04:24:35.284Z,44.5
2017-12-16T04:25:37.184Z,44.5
2017-12-16T04:26:38.804Z,44.5
2017-12-16T04:27:40.422Z,44.4
2017-12-16T04:28:41.804Z,44.7
2017-12-16T04:29:42.850Z,44.4
2017-12-16T04:30:44.469Z,44.5
2017-12-16T04:31:46.367Z,44.7
2017-12-16T04:32:47.989Z,44.7
2017-12-16T04:33:49.887Z,44.3
2017-12-16T04:34:51.255Z,44.4
2017-12-16T04:35:52.597Z,44.7
2017-12-16T04:36:54.495Z,44.6
2017-12-16T04:37:56.392Z,44.7
2017-12-16T04:38:58.292Z,44.6
2017-12-16T04:39:59.891Z,44.8
2017-12-16T04:41:01.795Z,44.8
2017-12-16T04:42:03.733Z,44.7
2017-12-16T04:43:05.632Z,44.7
2017-12-16T04:44:07.299Z,44.5
2017-12-16T04:45:09.197Z,44.5
2017-12-16T04:46:11.095Z,44.4
2017-12-16T04:47:12.998Z,44.8
2017-12-16T04:48:14.894Z,44.6
2017-12-16T04:49:16.511Z,44.5
2017-12-16T04:50:18.133Z,44.6
2017-12-16T04:51:19.476Z,44.4
2017-12-16T04:52:21.099Z,44.5
2017-12-16T04:53:22.722Z,44.4
2017-12-16T04:54:24.621Z,44.2
2017-12-16T04:55:25.952Z,44.2
2017-12-16T04:56:27.881Z,44.4
2017-12-16T04:57:29.520Z,44
2017-12-16T04:58:31.126Z,44.3
2017-12-16T04:59:32.502Z,44.6
2017-12-16T05:00:33.568Z,44
2017-12-16T05:01:35.171Z,44.5
2017-12-16T05:02:37.069Z,44.5
2017-12-16T05:03:38.687Z,44.6
2017-12-16T05:04:40.583Z,44.2
2017-12-16T05:05:41.906Z,44.2
2017-12-16T05:06:43.808Z,44.4
2017-12-16T05:07:45.704Z,44.4
2017-12-16T05:08:47.319Z,44.3
2017-12-16T05:09:49.219Z,44
2017-12-16T05:10:50.560Z,44.5
2017-12-16T05:11:52.161Z,44.3
2017-12-16T05:12:53.760Z,44.4
2017-12-16T05:13:55.672Z,44.5
2017-12-16T05:14:57.570Z,44.3
2017-12-16T05:15:58.914Z,44.4
2017-12-16T05:17:00.514Z,44.5
2017-12-16T05:18:02.410Z,44.5
2017-12-16T05:19:04.309Z,44.3
2017-12-16T05:20:06.210Z,44.3
2017-12-16T05:21:07.807Z,44.4
2017-12-16T05:22:09.151Z,44.2
2017-12-16T05:23:10.769Z,44.7
2017-12-16T05:24:12.665Z,44.2
2017-12-16T05:25:14.295Z,44.4
2017-12-16T05:26:16.182Z,44.2
2017-12-16T05:27:18.088Z,44.7
2017-12-16T05:28:19.411Z,44.2
2017-12-16T05:29:20.731Z,44.4
2017-12-16T05:30:21.798Z,44.1
2017-12-16T05:31:23.420Z,44.3
2017-12-16T05:32:25.318Z,44.1
2017-12-16T05:33:27.247Z,44.4
2017-12-16T05:34:28.847Z,44.3
2017-12-16T05:35:29.890Z,44.5
2017-12-16T05:36:31.513Z,44.5
2017-12-16T05:37:33.110Z,44.3
2017-12-16T05:38:34.730Z,44.5
2017-12-16T05:39:36.049Z,44.4
2017-12-16T05:40:37.947Z,44.3
2017-12-16T05:41:39.847Z,44.4
2017-12-16T05:42:41.186Z,44.3
2017-12-16T05:43:42.805Z,44.4
2017-12-16T05:44:44.151Z,44.4
2017-12-16T05:45:46.049Z,44.2
2017-12-16T05:46:47.671Z,44.3
2017-12-16T05:47:49.567Z,44.4
2017-12-16T05:48:51.463Z,44.3
2017-12-16T05:49:53.099Z,44.4
2017-12-16T05:50:54.997Z,44.4
2017-12-16T05:51:56.617Z,44.1
2017-12-16T05:52:57.698Z,44.4
2017-12-16T05:53:59.324Z,44.3
2017-12-16T05:55:00.938Z,44.1
2017-12-16T05:56:02.535Z,44.3
2017-12-16T05:57:04.137Z,44.5
2017-12-16T05:58:05.475Z,44.2
2017-12-16T05:59:06.801Z,44.4
2017-12-16T06:00:08.143Z,44.1
2017-12-16T06:01:09.764Z,44.4
2017-12-16T06:02:11.387Z,44.2
2017-12-16T06:03:13.005Z,44.2
2017-12-16T06:04:14.627Z,44.3
2017-12-16T06:05:15.969Z,44.4
2017-12-16T06:06:17.011Z,44.4
2017-12-16T06:07:18.911Z,44.4
2017-12-16T06:08:20.806Z,44.4
2017-12-16T06:09:22.704Z,44.1
2017-12-16T06:10:24.324Z,44.3
2017-12-16T06:11:25.944Z,44.4
2017-12-16T06:12:26.989Z,44.4
2017-12-16T06:13:28.333Z,44.5
2017-12-16T06:14:30.232Z,44.4
2017-12-16T06:15:31.832Z,44.2
2017-12-16T06:16:33.455Z,44.3
2017-12-16T06:17:34.781Z,44.4
2017-12-16T06:18:36.682Z,44.3
2017-12-16T06:19:38.581Z,44.5
2017-12-16T06:20:40.192Z,44.2
2017-12-16T06:21:41.681Z,44.4
2017-12-16T06:22:43.617Z,44.4
2017-12-16T06:23:45.518Z,44.2
2017-12-16T06:24:47.416Z,44.3
2017-12-16T06:25:48.459Z,44.2
2017-12-16T06:26:50.086Z,44.4
2017-12-16T06:27:51.425Z,44.4
2017-12-16T06:28:53.045Z,44.4
2017-12-16T06:29:54.941Z,44.3
2017-12-16T06:30:56.538Z,44.4
2017-12-16T06:31:57.878Z,44
2017-12-16T06:32:59.776Z,44.3
2017-12-16T06:34:01.397Z,44.2
2017-12-16T06:35:02.993Z,44.4
2017-12-16T06:36:04.334Z,44.1
2017-12-16T06:37:05.930Z,44
2017-12-16T06:38:07.550Z,44.3
2017-12-16T06:39:08.872Z,44.4
2017-12-16T06:40:09.916Z,44.3
2017-12-16T06:41:11.011Z,44.2
2017-12-16T06:42:12.075Z,44.1
2017-12-16T06:43:13.141Z,44.5
2017-12-16T06:44:14.207Z,44.4
2017-12-16T06:45:16.104Z,44.4
2017-12-16T06:46:17.741Z,44.1
2017-12-16T06:47:19.357Z,44.2
2017-12-16T06:48:20.978Z,44.1
2017-12-16T06:49:22.596Z,44.1
2017-12-16T06:50:23.931Z,44.1
2017-12-16T06:51:25.827Z,44.2
2017-12-16T06:52:27.150Z,44.1
2017-12-16T06:53:28.790Z,44.1
2017-12-16T06:54:30.110Z,44.2
2017-12-16T06:55:31.707Z,44.1
2017-12-16T06:56:33.605Z,44.2
2017-12-16T06:57:34.948Z,44.1
2017-12-16T06:58:35.994Z,44
2017-12-16T06:59:37.339Z,44
2017-12-16T07:00:38.956Z,44.2
2017-12-16T07:01:40.858Z,44
2017-12-16T07:02:42.475Z,44.1
2017-12-16T07:03:43.515Z,44.2
2017-12-16T07:04:45.135Z,44.1
2017-12-16T07:05:46.732Z,44.2
2017-12-16T07:06:48.632Z,44.1
2017-12-16T07:07:50.531Z,44.2
2017-12-16T07:08:52.430Z,44.2
2017-12-16T07:09:53.751Z,44.1
2017-12-16T07:10:55.652Z,44.1
2017-12-16T07:11:56.999Z,44.3
2017-12-16T07:12:58.323Z,44
2017-12-16T07:13:59.954Z,44.4
2017-12-16T07:15:01.936Z,44.3
2017-12-16T07:16:03.835Z,44.4
2017-12-16T07:17:05.454Z,44.3
2017-12-16T07:18:07.052Z,44.2
2017-12-16T07:19:08.100Z,44.3
2017-12-16T07:20:09.421Z,44.3
2017-12-16T07:21:11.092Z,44.2
2017-12-16T07:22:12.139Z,44.1
2017-12-16T07:23:13.769Z,44.2
2017-12-16T07:24:15.114Z,44.2
2017-12-16T07:25:16.719Z,44.2
2017-12-16T07:26:18.618Z,44.1
2017-12-16T07:27:19.941Z,44.1
2017-12-16T07:28:21.538Z,44.2
2017-12-16T07:29:22.858Z,44.2
2017-12-16T07:30:24.492Z,44.2
2017-12-16T07:31:26.104Z,44.2
2017-12-16T07:32:27.426Z,44.2
2017-12-16T07:33:28.776Z,44.1
2017-12-16T07:34:30.394Z,44.3
2017-12-16T07:35:32.296Z,44.2
2017-12-16T07:36:33.915Z,44.2
2017-12-16T07:37:35.237Z,44.2
2017-12-16T07:38:36.859Z,44.1
2017-12-16T07:39:38.180Z,44.2
2017-12-16T07:40:39.799Z,43.9
2017-12-16T07:41:41.443Z,44.2
2017-12-16T07:42:42.762Z,44.2
2017-12-16T07:43:43.808Z,44.1
2017-12-16T07:44:45.430Z,44
2017-12-16T07:45:47.050Z,44.2
2017-12-16T07:46:48.651Z,44.1
2017-12-16T07:47:49.995Z,44.2
2017-12-16T07:48:51.321Z,44.3
2017-12-16T07:49:52.923Z,44.2
2017-12-16T07:50:54.823Z,44.1
2017-12-16T07:51:56.725Z,44.1
2017-12-16T07:52:58.064Z,44.2
2017-12-16T07:53:59.410Z,44.2
2017-12-16T07:55:01.034Z,44.1
2017-12-16T07:56:02.379Z,44.1
2017-12-16T07:57:04.277Z,44.2
2017-12-16T07:58:05.899Z,44.2
2017-12-16T07:59:06.948Z,44.3
2017-12-16T08:00:08.574Z,44.2
2017-12-16T08:01:10.175Z,44.1
2017-12-16T08:02:12.074Z,44.1
2017-12-16T08:03:13.736Z,44
2017-12-16T08:04:15.360Z,44.1
2017-12-16T08:05:16.978Z,43.9
2017-12-16T08:06:18.876Z,44.2
2017-12-16T08:07:20.774Z,44.2
2017-12-16T08:08:22.400Z,44
2017-12-16T08:09:23.721Z,44.1
2017-12-16T08:10:25.353Z,44.1
2017-12-16T08:11:26.953Z,44
2017-12-16T08:12:28.570Z,44.1
2017-12-16T08:13:30.187Z,44
2017-12-16T08:14:32.092Z,44.1
2017-12-16T08:15:33.988Z,44.2
2017-12-16T08:16:35.617Z,44.1
2017-12-16T08:17:37.508Z,44.2
2017-12-16T08:18:38.828Z,44
2017-12-16T08:19:40.453Z,44.2
2017-12-16T08:20:42.051Z,44.2
2017-12-16T08:21:43.674Z,44.2
2017-12-16T08:22:45.295Z,44
2017-12-16T08:23:47.197Z,43.9
2017-12-16T08:24:49.098Z,43.8
2017-12-16T08:25:50.998Z,43.9
2017-12-16T08:26:52.041Z,43.9
2017-12-16T08:27:53.946Z,44
2017-12-16T08:28:55.320Z,43.8
2017-12-16T08:29:56.920Z,43.9
2017-12-16T08:30:58.822Z,44
2017-12-16T08:32:00.731Z,43.9
2017-12-16T08:33:02.618Z,43.9
2017-12-16T08:34:04.237Z,44.1
2017-12-16T08:35:05.558Z,44.1
2017-12-16T08:36:07.458Z,43.9
2017-12-16T08:37:09.359Z,44.1
2017-12-16T08:38:10.687Z,43.8
2017-12-16T08:39:12.589Z,44.1
2017-12-16T08:40:14.209Z,43.8
2017-12-16T08:41:15.835Z,43.8
2017-12-16T08:42:17.176Z,44
2017-12-16T08:43:18.801Z,43.8
2017-12-16T08:44:19.861Z,43.8
2017-12-16T08:45:21.768Z,43.8
2017-12-16T08:46:23.664Z,43.8
2017-12-16T08:47:24.988Z,43.8
2017-12-16T08:48:26.610Z,43.8
2017-12-16T08:49:27.954Z,43.8
2017-12-16T08:50:29.575Z,43.8
2017-12-16T08:51:31.469Z,43.8
2017-12-16T08:52:32.816Z,43.8
2017-12-16T08:53:34.436Z,43.9
2017-12-16T08:54:35.769Z,43.8
2017-12-16T08:55:37.087Z,43.8
2017-12-16T08:56:38.435Z,43.8
2017-12-16T08:57:40.053Z,43.8
2017-12-16T08:58:41.681Z,43.8
2017-12-16T08:59:43.297Z,43.9
2017-12-16T09:00:44.920Z,43.8
2017-12-16T09:01:46.820Z,43.9
2017-12-16T09:02:48.441Z,44.2
2017-12-16T09:03:49.761Z,44.1
2017-12-16T09:04:51.385Z,44.1
2017-12-16T09:05:52.732Z,43.8
2017-12-16T09:06:53.774Z,43.7
2017-12-16T09:07:55.674Z,43.7
2017-12-16T09:08:57.276Z,43.9
2017-12-16T09:09:58.897Z,43.9
2017-12-16T09:11:00.794Z,43.7
2017-12-16T09:12:02.694Z,43.9
2017-12-16T09:13:03.461Z,43.8
2017-12-16T09:14:04.508Z,44.1
2017-12-16T09:15:06.131Z,44
2017-12-16T09:16:07.753Z,43.8
2017-12-16T09:17:08.809Z,43.8
2017-12-16T09:18:10.715Z,43.7
2017-12-16T09:19:11.760Z,43.8
2017-12-16T09:20:13.663Z,43.8
2017-12-16T09:21:15.283Z,43.8
2017-12-16T09:22:17.186Z,43.7
2017-12-16T09:23:19.087Z,43.8
2017-12-16T09:24:20.709Z,43.4
2017-12-16T09:25:22.333Z,43.8
2017-12-16T09:26:24.229Z,43.8
2017-12-16T09:27:25.281Z,43.8
2017-12-16T09:28:27.179Z,43.8
2017-12-16T09:29:29.081Z,43.7
2017-12-16T09:30:30.752Z,43.8
2017-12-16T09:31:32.373Z,43.8
2017-12-16T09:32:33.420Z,43.7
2017-12-16T09:33:35.042Z,43.8
2017-12-16T09:34:36.360Z,43.9
2017-12-16T09:35:37.405Z,44
2017-12-16T09:36:38.750Z,43.9
2017-12-16T09:37:40.649Z,43.6
2017-12-16T09:38:41.993Z,43.9
2017-12-16T09:39:43.891Z,43.5
2017-12-16T09:40:45.491Z,43.9
2017-12-16T09:41:46.814Z,43.4
2017-12-16T09:42:48.157Z,43.9
2017-12-16T09:43:50.057Z,43.8
2017-12-16T09:44:51.679Z,43.8
2017-12-16T09:45:53.004Z,43.8
2017-12-16T09:46:54.623Z,43.8
2017-12-16T09:47:56.518Z,43.5
2017-12-16T09:48:58.419Z,43.6
2017-12-16T09:50:00.040Z,43.8
2017-12-16T09:51:01.955Z,43.6
2017-12-16T09:52:03.569Z,43.4
2017-12-16T09:53:05.195Z,43.3
2017-12-16T09:54:07.091Z,43.3
2017-12-16T09:55:08.444Z,43.2
2017-12-16T09:56:10.066Z,43.5
2017-12-16T09:57:11.664Z,43.5
2017-12-16T09:58:13.562Z,43.3
2017-12-16T09:59:15.461Z,43.5
2017-12-16T10:00:17.360Z,43.3
2017-12-16T10:01:18.406Z,43.3
2017-12-16T10:02:20.028Z,43.3
2017-12-16T10:03:21.926Z,43.6
2017-12-16T10:04:23.271Z,43.5
2017-12-16T10:05:25.171Z,43.5
2017-12-16T10:06:26.239Z,43.5
2017-12-16T10:07:28.144Z,43.5
2017-12-16T10:08:30.039Z,43.2
2017-12-16T10:09:31.935Z,43.6
2017-12-16T10:10:33.834Z,43.5
2017-12-16T10:11:35.461Z,43.5
2017-12-16T10:12:37.089Z,43.4
2017-12-16T10:13:38.720Z,43.5
2017-12-16T10:14:40.333Z,43.5
2017-12-16T10:15:41.375Z,43.5
2017-12-16T10:16:43.001Z,43.7
2017-12-16T10:17:44.338Z,43.7
2017-12-16T10:18:45.682Z,43.8
2017-12-16T10:19:47.580Z,43.7
2017-12-16T10:20:48.650Z,43.6
2017-12-16T10:21:49.969Z,43.8
2017-12-16T10:22:51.868Z,43.8
2017-12-16T10:23:53.489Z,43.6
2017-12-16T10:24:55.402Z,43.6
2017-12-16T10:25:56.725Z,43.6
2017-12-16T10:26:58.049Z,43.6
2017-12-16T10:27:59.670Z,43.7
2017-12-16T10:29:00.992Z,43.8
2017-12-16T10:30:02.065Z,43.7
2017-12-16T10:31:03.680Z,43.8
2017-12-16T10:32:05.350Z,43.5
2017-12-16T10:33:07.253Z,43.7
2017-12-16T10:34:08.854Z,43.6
2017-12-16T10:35:10.193Z,43.8
2017-12-16T10:36:11.814Z,43.7
2017-12-16T10:37:13.440Z,43.6
2017-12-16T10:38:15.060Z,43.6
2017-12-16T10:39:16.384Z,43.8
2017-12-16T10:40:17.709Z,43.7
2017-12-16T10:41:19.609Z,43.7
2017-12-16T10:42:21.514Z,43.6
2017-12-16T10:43:23.413Z,43.8
2017-12-16T10:44:24.460Z,43.8
2017-12-16T10:45:26.083Z,43.7
2017-12-16T10:46:27.407Z,43.8
2017-12-16T10:47:28.752Z,43.6
2017-12-16T10:48:30.095Z,43.6
2017-12-16T10:49:31.996Z,43.8
2017-12-16T10:50:33.898Z,43.6
2017-12-16T10:51:35.505Z,43.7
2017-12-16T10:52:36.850Z,43.5
2017-12-16T10:53:38.467Z,43.4
2017-12-16T10:54:40.372Z,43.7
2017-12-16T10:55:42.271Z,43.6
2017-12-16T10:56:44.175Z,43.7
2017-12-16T10:57:45.869Z,43.4
2017-12-16T10:58:47.194Z,43.6
2017-12-16T10:59:48.517Z,43.5
2017-12-16T11:00:49.559Z,43.6
2017-12-16T11:01:51.188Z,43.3
2017-12-16T11:02:53.089Z,43.4
2017-12-16T11:03:54.432Z,43.7
2017-12-16T11:04:55.753Z,43.5
2017-12-16T11:05:57.118Z,43.4
2017-12-16T11:06:58.459Z,43.6
2017-12-16T11:08:00.360Z,43.5
2017-12-16T11:09:02.255Z,43.4
2017-12-16T11:10:04.155Z,43.4
2017-12-16T11:11:05.754Z,43.4
2017-12-16T11:12:07.078Z,43.7
2017-12-16T11:13:08.700Z,43.3
2017-12-16T11:14:10.300Z,43.5
2017-12-16T11:15:11.921Z,43.6
2017-12-16T11:16:13.248Z,43.4
2017-12-16T11:17:14.887Z,43.4
2017-12-16T11:18:16.512Z,43.3
2017-12-16T11:19:18.410Z,43.3
2017-12-16T11:20:20.034Z,43.5
2017-12-16T11:21:21.972Z,43.5
2017-12-16T11:22:23.599Z,43.4
2017-12-16T11:23:24.694Z,43.6
2017-12-16T11:24:26.592Z,43.5
2017-12-16T11:25:27.942Z,43.5
2017-12-16T11:26:29.540Z,43.1
2017-12-16T11:27:31.439Z,43.5
2017-12-16T11:28:33.058Z,43.4
2017-12-16T11:29:34.683Z,43.4
2017-12-16T11:30:35.729Z,43.5
2017-12-16T11:31:37.348Z,43.4
2017-12-16T11:32:38.946Z,43.2
2017-12-16T11:33:40.265Z,43.2
2017-12-16T11:34:42.167Z,43.2
2017-12-16T11:35:43.214Z,43.4
2017-12-16T11:36:44.574Z,43.4
2017-12-16T11:37:45.915Z,43.2
2017-12-16T11:38:47.812Z,43
2017-12-16T11:39:49.430Z,43.1
2017-12-16T11:40:51.027Z,43.2
2017-12-16T11:41:52.647Z,43.3
2017-12-16T11:42:53.717Z,43.2
2017-12-16T11:43:55.372Z,43.5
2017-12-16T11:44:56.977Z,43.5
2017-12-16T11:45:58.602Z,43.4
2017-12-16T11:47:00.223Z,43.5
2017-12-16T11:48:01.540Z,43.2
2017-12-16T11:49:02.860Z,43.4
2017-12-16T11:50:04.479Z,43.5
2017-12-16T11:51:06.100Z,43.2
2017-12-16T11:52:07.169Z,43.3
2017-12-16T11:53:08.797Z,43.2
2017-12-16T11:54:10.413Z,43.4
2017-12-16T11:55:11.457Z,43.3
2017-12-16T11:56:12.804Z,43
2017-12-16T11:57:14.701Z,43.2
2017-12-16T11:58:16.601Z,43.3
2017-12-16T11:59:17.945Z,42.9
2017-12-16T12:00:19.569Z,43.4
2017-12-16T12:01:21.190Z,43.2
2017-12-16T12:02:22.536Z,43.3
2017-12-16T12:03:24.650Z,43.1
2017-12-16T12:04:26.253Z,43.3
2017-12-16T12:05:27.298Z,43.2
2017-12-16T12:06:28.923Z,43.4
2017-12-16T12:07:30.522Z,42.9
2017-12-16T12:08:32.144Z,43.2
2017-12-16T12:09:33.739Z,43.2
2017-12-16T12:10:35.336Z,42.9
2017-12-16T12:11:37.233Z,43.2
2017-12-16T12:12:39.131Z,42.9
2017-12-16T12:13:40.752Z,43.2
2017-12-16T12:14:42.075Z,43.4
2017-12-16T12:15:43.706Z,43.3
2017-12-16T12:16:45.318Z,43.3
2017-12-16T12:17:46.364Z,43.3
2017-12-16T12:18:48.016Z,43.3
2017-12-16T12:19:49.061Z,43.1
2017-12-16T12:20:50.400Z,43.3
2017-12-16T12:21:52.020Z,43.2
2017-12-16T12:22:53.622Z,43.2
2017-12-16T12:23:55.266Z,43.3
2017-12-16T12:24:56.591Z,43.2
2017-12-16T12:25:58.211Z,43.3
2017-12-16T12:26:59.858Z,43.1
2017-12-16T12:28:01.222Z,43.1
2017-12-16T12:29:02.842Z,42.9
2017-12-16T12:30:04.464Z,42.8
2017-12-16T12:31:06.435Z,43
2017-12-16T12:32:08.334Z,42.7
2017-12-16T12:33:10.240Z,43
2017-12-16T12:34:12.135Z,42.9
2017-12-16T12:35:13.462Z,42.9
2017-12-16T12:36:14.511Z,43.1
2017-12-16T12:37:15.852Z,42.8
2017-12-16T12:38:17.478Z,43.2
2017-12-16T12:39:19.377Z,42.8
2017-12-16T12:40:21.275Z,42.8
2017-12-16T12:41:22.880Z,43.1
2017-12-16T12:42:24.509Z,43.1
2017-12-16T12:43:26.108Z,43.2
2017-12-16T12:44:27.714Z,43.1
2017-12-16T12:45:28.484Z,42.7
2017-12-16T12:46:30.105Z,42.3
2017-12-16T12:47:31.706Z,42.8
2017-12-16T12:48:33.303Z,42.7
2017-12-16T12:49:35.200Z,42.9
2017-12-16T12:50:36.826Z,42.9
2017-12-16T12:51:38.439Z,42.7
2017-12-16T12:52:40.058Z,42.6
2017-12-16T12:53:41.659Z,43
2017-12-16T12:54:43.285Z,42.9
2017-12-16T12:55:45.184Z,42.9
2017-12-16T12:56:46.534Z,42.8
2017-12-16T12:57:48.152Z,42.9
2017-12-16T12:58:49.752Z,42.8
2017-12-16T12:59:51.651Z,42.8
2017-12-16T13:00:53.273Z,42.8
2017-12-16T13:01:54.871Z,42.8
2017-12-16T13:02:56.217Z,42.7
2017-12-16T13:03:58.116Z,42.7
2017-12-16T13:05:00.016Z,42.9
2017-12-16T13:06:01.916Z,42.6
2017-12-16T13:07:03.538Z,42.8
2017-12-16T13:08:05.444Z,42.7
2017-12-16T13:09:07.343Z,42.8
2017-12-16T13:10:09.240Z,43
2017-12-16T13:11:11.140Z,42.9
2017-12-16T13:12:13.054Z,42.9
2017-12-16T13:13:14.646Z,42.4
2017-12-16T13:14:16.370Z,42.9
2017-12-16T13:15:17.422Z,43
2017-12-16T13:16:19.048Z,42.9
2017-12-16T13:17:20.952Z,42.6
2017-12-16T13:18:22.855Z,43
2017-12-16T13:19:24.194Z,42.8
2017-12-16T13:20:25.538Z,42.9
2017-12-16T13:21:27.156Z,42.9
2017-12-16T13:22:28.779Z,43
2017-12-16T13:23:29.850Z,42.7
2017-12-16T13:24:31.471Z,42.6
2017-12-16T13:25:33.367Z,43.1
2017-12-16T13:26:34.989Z,43
2017-12-16T13:27:36.309Z,42.8
2017-12-16T13:28:38.211Z,43.1
2017-12-16T13:29:39.832Z,43
2017-12-16T13:30:41.450Z,42.8
2017-12-16T13:31:42.796Z,43
2017-12-16T13:32:44.400Z,42.5
2017-12-16T13:33:45.739Z,43.1
2017-12-16T13:34:47.114Z,43
2017-12-16T13:35:48.704Z,43
2017-12-16T13:36:50.328Z,42.9
2017-12-16T13:37:52.230Z,42.9
2017-12-16T13:38:53.858Z,43
2017-12-16T13:39:55.180Z,42.6
2017-12-16T13:40:56.505Z,42.8
2017-12-16T13:41:57.825Z,42.7
2017-12-16T13:42:59.149Z,42.8
2017-12-16T13:44:00.493Z,43
2017-12-16T13:48:04.905Z,42.9
2017-12-16T13:49:06.628Z,42.8
2017-12-16T13:50:08.228Z,42.9